createdAt,value
2022-10-28T00:00:26.874Z,23.30
2022-10-28T00:05:30.604Z,17.98
2022-10-28T00:10:35.515Z,23.20
2022-10-28T00:15:38.846Z,27.23
2022-10-28T00:20:42.172Z,30.20
2022-10-28T00:25:46.867Z,28.02
2022-10-28T00:30:50.606Z,32.10
2022-10-28T00:35:53.869Z,34.05
2022-10-28T00:40:58.538Z,31.70
2022-10-28T00:46:02.627Z,30.00
2022-10-28T00:51:06.457Z,25.97
2022-10-28T00:56:12.617Z,21.75
2022-10-28T01:01:16.242Z,28.98
2022-10-28T01:06:19.593Z,27.50
2022-10-28T01:11:47.397Z,25.02
2022-10-28T01:17:16.068Z,20.65
2022-10-28T01:22:23.854Z,19.65
2022-10-28T01:27:58.425Z,17.33
2022-10-28T01:33:10.080Z,17.63
2022-10-28T01:38:23.635Z,17.83
2022-10-28T01:43:30.907Z,17.60
2022-10-28T01:48:41.386Z,25.73
2022-10-28T01:53:48.645Z,18.27
2022-10-28T01:58:54.677Z,17.90
2022-10-28T02:03:59.676Z,19.20
2022-10-28T02:09:12.254Z,28.03
2022-10-28T02:14:26.527Z,25.15
2022-10-28T02:19:39.402Z,29.27
2022-10-28T02:24:51.845Z,25.40
2022-10-28T02:30:01.236Z,25.90
2022-10-28T02:35:13.240Z,25.23
2022-10-28T02:40:20.647Z,28.37
2022-10-28T02:45:28.483Z,26.35
2022-10-28T02:50:35.938Z,29.13
2022-10-28T02:55:43.909Z,27.80
2022-10-28T03:00:49.789Z,26.45
2022-10-28T03:05:54.572Z,26.52
2022-10-28T03:10:57.926Z,24.97
2022-10-28T03:16:01.221Z,23.17
2022-10-28T03:21:06.367Z,20.20
2022-10-28T03:26:09.809Z,18.50
2022-10-28T03:31:13.133Z,21.85
2022-10-28T03:36:17.957Z,21.17
2022-10-28T03:41:21.462Z,21.10
2022-10-28T03:46:24.920Z,18.08
2022-10-28T03:51:29.820Z,17.10
2022-10-28T03:56:33.162Z,18.13
2022-10-28T04:01:36.686Z,19.10
2022-10-28T04:06:41.545Z,18.63
2022-10-28T04:11:44.856Z,18.43
2022-10-28T04:16:48.155Z,18.35
2022-10-28T04:21:52.914Z,19.40
2022-10-28T04:26:56.322Z,18.65
2022-10-28T04:31:59.695Z,19.47
2022-10-28T04:37:04.461Z,23.30
2022-10-28T04:42:07.829Z,19.83
2022-10-28T04:47:11.178Z,18.50
2022-10-28T04:52:16.144Z,17.77
2022-10-28T04:57:19.484Z,16.95
2022-10-28T05:02:24.128Z,16.85
2022-10-28T05:07:28.949Z,16.80
2022-10-28T05:12:32.281Z,20.85
2022-10-28T05:17:35.701Z,27.37
2022-10-28T05:22:46.107Z,23.50
2022-10-28T05:27:49.799Z,24.30
2022-10-28T05:32:55.313Z,20.50
2022-10-28T05:38:00.479Z,18.85
2022-10-28T05:43:04.301Z,21.70
2022-10-28T05:48:08.256Z,19.38
2022-10-28T05:53:13.106Z,23.38
2022-10-28T05:58:16.603Z,23.80
2022-10-28T06:03:20.186Z,24.40
2022-10-28T06:08:25.017Z,22.75
2022-10-28T06:13:26.972Z,21.75
2022-10-28T06:18:30.401Z,19.98
2022-10-28T06:23:35.249Z,18.27
2022-10-28T06:28:38.614Z,16.17
2022-10-28T06:33:41.957Z,16.13
2022-10-28T06:38:46.802Z,17.60
2022-10-28T06:43:50.137Z,17.40
2022-10-28T06:48:55.458Z,21.73
2022-10-28T06:54:00.420Z,21.65
2022-10-28T06:59:03.748Z,24.13
2022-10-28T07:04:08.352Z,22.58
2022-10-28T07:09:15.428Z,20.10
2022-10-28T07:14:19.038Z,15.98
2022-10-28T07:19:22.786Z,20.03
2022-10-28T07:29:35.863Z,17.60
2022-10-28T07:34:39.224Z,16.03
2022-10-28T07:39:43.896Z,12.80
2022-10-28T07:44:47.220Z,13.02
2022-10-28T07:49:50.546Z,19.50
2022-10-28T07:54:55.335Z,20.38
2022-10-28T07:59:59.823Z,22.77
2022-10-28T08:05:03.291Z,26.37
2022-10-28T08:10:08.818Z,27.40
2022-10-28T08:15:13.279Z,21.25
2022-10-28T08:20:16.791Z,21.97
2022-10-28T08:25:21.573Z,24.63
2022-10-28T08:30:24.926Z,19.57
2022-10-28T08:35:28.587Z,17.55
2022-10-28T08:50:53.929Z,21.00
2022-10-28T08:56:09.381Z,17.67
2022-10-28T09:01:21.859Z,13.80
2022-10-28T09:06:25.647Z,13.77
2022-10-28T09:11:49.272Z,14.50
2022-10-28T09:17:04.818Z,15.50
2022-10-28T09:22:23.148Z,14.55
2022-10-28T09:27:52.329Z,16.13
2022-10-28T09:33:05.864Z,12.93
2022-10-28T09:38:17.370Z,15.17
2022-10-28T09:43:27.217Z,12.43
2022-10-28T09:48:33.537Z,12.43
2022-10-28T09:53:43.279Z,12.48
2022-10-28T09:58:49.190Z,10.50
2022-10-28T10:03:53.554Z,9.77
2022-10-28T10:08:57.958Z,9.80
2022-10-28T10:14:11.231Z,9.13
2022-10-28T10:19:14.663Z,8.55
2022-10-28T10:24:31.465Z,8.93
2022-10-28T10:29:36.749Z,8.25
2022-10-28T10:34:46.012Z,8.60
2022-10-28T10:40:02.372Z,8.07
2022-10-28T10:45:20.302Z,7.18
2022-10-28T10:50:29.752Z,7.07
2022-10-28T10:55:37.302Z,6.90
2022-10-28T11:00:48.532Z,7.77
2022-10-28T11:06:18.299Z,6.60
2022-10-28T11:11:22.381Z,6.97
2022-10-28T11:16:27.264Z,6.20
2022-10-28T11:21:50.515Z,6.63
2022-10-28T11:27:00.554Z,6.90
2022-10-28T11:32:22.300Z,5.90
2022-10-28T11:37:39.879Z,5.43
2022-10-28T11:42:55.069Z,5.10
2022-10-28T11:48:12.757Z,4.97
2022-10-28T11:53:42.073Z,5.22
2022-10-28T11:58:52.516Z,4.57
2022-10-28T12:04:09.926Z,4.13
2022-10-28T12:09:24.444Z,4.47
2022-10-28T12:14:35.819Z,4.70
2022-10-28T12:19:45.521Z,4.60
2022-10-28T12:24:49.928Z,4.10
2022-10-28T12:29:57.309Z,3.90
2022-10-28T12:35:07.443Z,5.10
2022-10-28T12:40:17.856Z,4.65
2022-10-28T12:45:23.249Z,5.10
2022-10-28T12:50:33.503Z,4.87
2022-10-28T13:00:45.754Z,3.90
2022-10-28T13:05:59.917Z,3.55
2022-10-28T13:11:29.122Z,3.85
2022-10-28T13:16:55.101Z,3.80
2022-10-28T13:22:35.113Z,4.10
2022-10-28T13:27:40.443Z,4.00
2022-10-28T13:32:44.366Z,3.95
2022-10-28T13:37:50.104Z,3.80
2022-10-28T13:42:55.166Z,3.47
2022-10-28T13:48:45.536Z,3.75
2022-10-28T13:53:57.868Z,3.80
2022-10-28T14:04:17.128Z,4.33
2022-10-28T15:05:39.920Z,4.70
2022-10-28T15:10:46.499Z,5.32
2022-10-28T15:15:59.423Z,5.40
2022-10-28T15:21:10.210Z,5.28
2022-10-28T15:26:15.696Z,5.70
2022-10-28T15:31:20.395Z,6.28
2022-10-28T15:36:26.347Z,5.93
2022-10-28T15:41:49.588Z,5.50
2022-10-28T15:46:54.975Z,5.53
2022-10-28T15:52:23.288Z,5.40
2022-10-28T15:57:28.898Z,5.35
2022-10-28T16:02:43.750Z,5.93
2022-10-28T16:07:47.413Z,5.53
2022-10-28T16:12:50.783Z,5.05
2022-10-28T16:17:55.954Z,5.75
2022-10-28T16:23:00.410Z,6.10
2022-10-28T16:28:04.072Z,5.97
2022-10-28T16:33:10.608Z,6.27
2022-10-28T16:38:14.789Z,6.20
2022-10-28T16:43:19.838Z,7.93
2022-10-28T16:48:27.773Z,6.82
2022-10-28T16:53:35.594Z,6.00
2022-10-28T16:58:40.099Z,5.38
2022-10-28T17:03:44.832Z,5.93
2022-10-28T17:09:04.152Z,6.35
2022-10-28T17:14:07.643Z,6.90
2022-10-28T17:19:12.309Z,5.97
2022-10-28T17:24:15.862Z,10.17
2022-10-28T17:29:19.197Z,7.88
2022-10-28T17:34:23.953Z,9.75
2022-10-28T17:39:27.320Z,8.30
2022-10-28T17:44:30.636Z,8.70
2022-10-28T17:49:36.608Z,8.35
2022-10-28T17:54:39.968Z,8.43
2022-10-28T17:59:43.303Z,10.27
2022-10-28T18:04:48.022Z,9.30
2022-10-28T18:09:51.363Z,11.45
2022-10-28T18:14:54.710Z,11.05
2022-10-28T18:20:01.612Z,11.00
2022-10-28T18:25:05.409Z,8.83
2022-10-28T18:30:09.843Z,10.05
2022-10-28T18:35:14.657Z,9.10
2022-10-28T18:40:18.235Z,9.90
2022-10-28T18:45:21.649Z,9.60
2022-10-28T18:50:26.453Z,11.27
2022-10-28T18:55:29.873Z,10.68
2022-10-28T19:00:35.119Z,11.30
2022-10-28T19:05:39.879Z,11.00
2022-10-28T19:10:43.408Z,10.23
2022-10-28T19:15:48.183Z,10.35
2022-10-28T19:20:56.943Z,10.52
2022-10-28T19:26:00.591Z,10.07
2022-10-28T19:31:06.275Z,9.38
2022-10-28T19:36:14.458Z,9.53
2022-10-28T19:41:20.074Z,9.07
2022-10-28T19:46:25.995Z,9.83
2022-10-28T19:51:32.867Z,9.27
2022-10-28T19:56:37.113Z,11.05
2022-10-28T20:01:42.232Z,9.17
2022-10-28T20:06:47.124Z,8.98
2022-10-28T20:11:50.681Z,9.32
2022-10-28T20:16:54.023Z,10.88
2022-10-28T20:21:58.727Z,9.88
2022-10-28T20:27:02.106Z,9.85
2022-10-28T20:32:06.412Z,10.02
2022-10-28T20:37:11.105Z,9.93
2022-10-28T20:42:15.321Z,10.30
2022-10-28T20:47:18.878Z,9.93
2022-10-28T20:57:28.087Z,18.35
2022-10-28T21:02:31.521Z,15.23
2022-10-28T21:07:37.023Z,13.97
2022-10-28T21:12:43.126Z,11.20
2022-10-28T21:17:46.498Z,10.70
2022-10-28T21:22:51.474Z,10.05
2022-10-28T21:27:56.933Z,9.60
2022-10-28T21:33:00.257Z,10.57
2022-10-28T21:38:05.007Z,10.32
2022-10-28T21:43:09.324Z,10.30
2022-10-28T21:48:12.724Z,10.10
2022-10-28T21:53:17.603Z,9.93
2022-10-28T21:58:22.308Z,9.50
2022-10-28T22:03:25.669Z,9.93
2022-10-28T22:08:30.603Z,9.07
2022-10-28T22:13:34.676Z,9.18
2022-10-28T22:18:38.794Z,9.80
2022-10-28T22:23:44.334Z,9.47
2022-10-28T22:28:48.152Z,9.18
2022-10-28T22:33:51.801Z,9.47
2022-10-28T22:38:56.713Z,9.73
2022-10-28T22:44:01.919Z,10.25
2022-10-28T22:49:05.817Z,10.05
2022-10-28T22:54:10.892Z,9.63
2022-10-28T22:59:14.335Z,9.27
2022-10-28T23:04:17.727Z,8.30
2022-10-28T23:09:22.491Z,8.30
2022-10-28T23:14:25.886Z,9.35
2022-10-28T23:19:29.237Z,9.65
2022-10-28T23:24:34.402Z,12.17
2022-10-28T23:29:37.748Z,19.95
2022-10-28T23:34:41.104Z,16.75
2022-10-28T23:39:45.907Z,18.00
2022-10-28T23:44:49.306Z,13.75
2022-10-28T23:49:53.088Z,12.07
2022-10-28T23:54:57.781Z,11.70
